Flight Track Log - Related Links

Times and Time Zones

All times are in EDT time to prevent confusion due to time zone crossing. See the N448ND flight status page for this flight to view local times or setup timezone preferences in your user account.

Time Position Orientation Groundspeed Altitude Reporting Facility
EDT Latitude Longitude Course Direction KTS MPH feet Rate Location/Type
Thu 06:40:38 PM 27.4839 -80.3578 163° South 74 85 400  Level Miami Center
Thu 06:41:40 PM 27.4811 -80.3344 98° East 76 87 1,000 629 Climbing Miami Center
Thu 06:42:42 PM 27.4803 -80.3097 92° East 76 87 1,700 581 Climbing Miami Center
Thu 06:43:44 PM 27.4806 -80.2881 89° East 75 86 2,200 484 Climbing Miami Center
Thu 06:44:46 PM 27.4811 -80.2647 88° East 75 86 2,700 484 Climbing Miami Center
Thu 06:45:00 PM 27.3723 -80.3298 163° South  Level Estimated
Thu 06:45:48 PM 27.4611 -80.2600 168° South 79 91 3,200  Level Miami Center
Thu 06:46:50 PM 27.4386 -80.2608 182° South 79 91 3,800 387 Climbing Miami Center
Thu 06:47:52 PM 27.4156 -80.2600 178° South 78 90 4,000 98 Climbing Miami Center
Thu 06:48:53 PM 27.3878 -80.2614 183° South 90 104 4,000  Level Miami Center
Thu 06:49:55 PM 27.3631 -80.2581 173° South 91 105 4,000  Level Miami Center
Thu 06:50:57 PM 27.3369 -80.2531 170° South 91 105 4,000  Level Miami Center
Thu 06:51:59 PM 27.3111 -80.2478 170° South 91 105 4,000  Level Miami Center
Thu 06:53:01 PM 27.2856 -80.2411 167° South 91 105 4,000  Level Miami Center
Thu 06:54:03 PM 27.2603 -80.2358 169° South 90 104 4,000  Level Miami Center
Thu 06:55:05 PM 27.2367 -80.2283 164° South 90 104 4,000  Level Miami Center
Thu 06:56:07 PM 27.2108 -80.2228 169° South 91 105 4,000  Level Miami Center
Thu 06:57:09 PM 27.1853 -80.2161 167° South 90 104 4,000  Level Miami Center
Thu 06:58:11 PM 27.1603 -80.2083 165° South 90 104 4,000  Level Miami Center
Thu 06:59:13 PM 27.1356 -80.2022 168° South 86 99 4,000 48 Level Miami Center
Thu 07:00:15 PM 27.1125 -80.1972 169° South 85 98 4,100  Climbing Miami Center
Thu 07:01:17 PM 27.0886 -80.1953 176° South 86 99 4,000 -48 Descending Miami Center
Thu 07:02:19 PM 27.0642 -80.2158 217° Southwest 100 115 4,000  Level Miami Center
Thu 07:03:20 PM 27.0403 -80.2339 214° Southwest 100 115 4,000  Level Miami Center
Thu 07:04:22 PM 27.0164 -80.2528 215° Southwest 100 115 4,000  Level Miami Center
Thu 07:05:24 PM 26.9944 -80.2694 214° Southwest 100 115 4,000 48 Level Miami Center
Thu 07:06:26 PM 26.9703 -80.2889 216° Southwest 100 115 4,100  Climbing Miami Center
Thu 07:07:28 PM 26.9456 -80.3081 215° Southwest 101 116 4,000 -48 Descending Miami Center
Thu 07:08:30 PM 26.9214 -80.3269 215° Southwest 102 117 4,000  Level Miami Center
Thu 07:09:32 PM 26.8978 -80.3436 212° Southwest 98 113 4,000 -195 Level Miami Center
Thu 07:10:33 PM 26.8711 -80.3542 199° South 100 115 3,600 -390 Descending Miami Center
Thu 07:11:35 PM 26.8442 -80.3594 190° South 101 116 3,200 -387 Descending Miami Center

Login

Don't have an account? Register now (free) for customized features, flight alerts, and more!